createdAt,value
2018-03-23T00:01:33.300Z,3.76
2018-03-23T00:04:01.564Z,3.71
2018-03-23T00:06:31.523Z,3.69
2018-03-23T00:08:59.906Z,3.68
2018-03-23T00:11:28.205Z,3.72
2018-03-23T00:13:56.474Z,3.71
2018-03-23T00:16:24.744Z,3.82
2018-03-23T00:18:53.008Z,3.79
2018-03-23T00:21:21.295Z,3.63
2018-03-23T00:23:49.695Z,3.85
2018-03-23T00:26:18.004Z,3.89
2018-03-23T00:28:46.311Z,3.90
2018-03-23T00:31:15.253Z,3.85
2018-03-23T00:33:43.722Z,3.91
2018-03-23T00:36:11.967Z,3.85
2018-03-23T00:38:40.268Z,3.87
2018-03-23T00:41:08.527Z,3.81
2018-03-23T00:43:36.832Z,3.78
2018-03-23T00:46:05.104Z,3.84
2018-03-23T00:48:34.157Z,3.84
2018-03-23T00:51:06.554Z,3.73
2018-03-23T00:53:34.819Z,3.75
2018-03-23T00:56:03.190Z,3.86
2018-03-23T00:58:31.445Z,3.87
2018-03-23T01:00:59.711Z,3.97
2018-03-23T01:03:27.974Z,3.91
2018-03-23T01:05:57.072Z,3.88
2018-03-23T01:08:26.286Z,3.91
2018-03-23T01:10:54.560Z,3.91
2018-03-23T01:13:22.834Z,3.91
2018-03-23T01:15:51.082Z,3.92
2018-03-23T01:18:20.142Z,3.82
2018-03-23T01:20:48.418Z,3.82
2018-03-23T01:23:16.667Z,3.87
2018-03-23T01:25:45.046Z,3.89
2018-03-23T01:28:13.404Z,3.86
2018-03-23T01:30:41.742Z,3.84
2018-03-23T01:33:10.002Z,3.98
2018-03-23T01:35:38.275Z,3.99
2018-03-23T01:38:06.559Z,3.96
2018-03-23T01:40:34.849Z,3.92
2018-03-23T01:43:03.140Z,3.85
2018-03-23T01:45:32.335Z,3.87
2018-03-23T01:48:01.431Z,3.89
2018-03-23T01:50:30.464Z,3.85
2018-03-23T01:52:58.822Z,3.94
2018-03-23T01:55:27.990Z,3.90
2018-03-23T01:57:57.138Z,3.93
2018-03-23T02:00:25.416Z,4.01
2018-03-23T02:02:53.677Z,3.94
2018-03-23T02:05:21.947Z,3.87
2018-03-23T02:07:54.538Z,3.82
2018-03-23T02:10:23.488Z,3.83
2018-03-23T02:12:55.764Z,3.93
2018-03-23T02:15:24.062Z,3.90
2018-03-23T02:17:52.348Z,4.02
2018-03-23T02:20:21.435Z,3.88
2018-03-23T02:22:49.724Z,3.85
2018-03-23T02:25:17.987Z,3.96
2018-03-23T02:27:46.273Z,3.96
2018-03-23T02:30:14.572Z,3.97
2018-03-23T02:32:43.019Z,4.01
2018-03-23T02:35:11.305Z,3.89
2018-03-23T02:37:39.628Z,3.96
2018-03-23T02:40:09.956Z,3.90
2018-03-23T02:42:38.241Z,3.95
2018-03-23T02:45:07.277Z,3.99
2018-03-23T02:47:35.559Z,4.00
2018-03-23T02:50:03.917Z,3.98
2018-03-23T02:52:32.167Z,3.88
2018-03-23T02:55:00.478Z,3.96
2018-03-23T02:57:28.740Z,3.90
2018-03-23T02:59:57.120Z,3.93
2018-03-23T03:02:25.398Z,3.84
2018-03-23T03:04:53.773Z,3.97
2018-03-23T03:07:22.043Z,3.94
2018-03-23T03:09:50.450Z,3.95
2018-03-23T03:12:18.912Z,3.94
2018-03-23T03:14:47.188Z,3.90
2018-03-23T03:17:15.467Z,3.99
2018-03-23T03:19:43.917Z,3.99
2018-03-23T03:22:12.200Z,3.99
2018-03-23T03:24:40.472Z,3.96
2018-03-23T03:27:08.750Z,3.95
2018-03-23T03:29:37.039Z,4.04
2018-03-23T03:32:05.297Z,4.00
2018-03-23T03:34:33.590Z,3.92
2018-03-23T03:37:01.866Z,4.01
2018-03-23T03:39:30.149Z,4.01
2018-03-23T03:41:58.434Z,3.98
2018-03-23T03:44:26.691Z,3.99
2018-03-23T03:46:55.614Z,4.05
2018-03-23T03:49:23.887Z,3.96
2018-03-23T03:51:52.170Z,3.98
2018-03-23T03:54:21.192Z,4.02
2018-03-23T03:56:49.471Z,3.95
2018-03-23T03:59:17.731Z,3.95
2018-03-23T04:01:46.009Z,3.93
2018-03-23T04:04:14.282Z,3.98
2018-03-23T04:06:42.563Z,3.99
2018-03-23T04:09:10.849Z,4.00
2018-03-23T04:11:39.139Z,3.98
2018-03-23T04:14:07.450Z,3.98
2018-03-23T04:16:35.716Z,3.94
2018-03-23T04:19:04.139Z,3.94
2018-03-23T04:21:32.463Z,3.92
2018-03-23T04:24:00.745Z,3.97
2018-03-23T04:26:29.025Z,3.99
2018-03-23T04:28:57.300Z,4.00
2018-03-23T04:31:25.595Z,3.97
2018-03-23T04:33:53.891Z,3.95
2018-03-23T04:36:22.330Z,3.90
2018-03-23T04:38:50.579Z,4.04
2018-03-23T04:41:18.940Z,4.01
2018-03-23T04:43:47.356Z,3.98
2018-03-23T04:46:15.610Z,3.96
2018-03-23T04:48:43.877Z,3.95
2018-03-23T04:51:12.156Z,3.91
2018-03-23T04:53:40.480Z,4.01
2018-03-23T04:56:09.557Z,3.98
2018-03-23T04:58:37.878Z,4.08
2018-03-23T05:01:06.162Z,4.02
2018-03-23T05:03:34.463Z,4.00
2018-03-23T05:06:02.727Z,4.06
2018-03-23T05:08:30.986Z,4.00
2018-03-23T05:10:59.947Z,4.06
2018-03-23T05:13:29.014Z,4.08
2018-03-23T05:15:57.264Z,4.06
2018-03-23T05:18:25.742Z,4.02
2018-03-23T05:20:54.009Z,4.06
2018-03-23T05:23:22.342Z,4.01
2018-03-23T05:25:51.378Z,4.12
2018-03-23T05:28:19.645Z,4.12
2018-03-23T05:30:47.959Z,4.11
2018-03-23T05:33:16.275Z,4.10
2018-03-23T05:35:44.568Z,4.05
2018-03-23T05:38:12.835Z,4.02
2018-03-23T05:40:41.291Z,4.03
2018-03-23T05:43:09.568Z,4.04
2018-03-23T05:45:38.624Z,4.10
2018-03-23T05:48:07.018Z,4.09
2018-03-23T05:50:36.906Z,3.98
2018-03-23T05:53:05.229Z,3.97
2018-03-23T05:55:34.344Z,3.99
2018-03-23T05:58:02.621Z,3.96
2018-03-23T06:00:30.893Z,4.02
2018-03-23T06:02:59.955Z,3.93
2018-03-23T06:05:29.075Z,4.02
2018-03-23T06:07:58.176Z,4.00
2018-03-23T06:10:26.470Z,3.90
2018-03-23T06:12:54.753Z,4.01
2018-03-23T06:15:23.777Z,3.99
2018-03-23T06:17:52.258Z,4.00
2018-03-23T06:20:20.598Z,4.08
2018-03-23T06:22:48.913Z,4.08
2018-03-23T06:25:17.390Z,4.06
2018-03-23T06:27:45.753Z,4.06
2018-03-23T06:30:14.081Z,4.09
2018-03-23T06:32:42.610Z,4.05
2018-03-23T06:35:10.992Z,4.06
2018-03-23T06:37:39.252Z,4.05
2018-03-23T06:40:07.526Z,4.03
2018-03-23T06:42:35.803Z,4.06
2018-03-23T06:45:04.079Z,4.11
2018-03-23T06:47:32.344Z,4.12
2018-03-23T06:50:00.855Z,4.11
2018-03-23T06:52:29.107Z,4.27
2018-03-23T06:54:57.701Z,4.20
2018-03-23T06:57:26.028Z,4.22
2018-03-23T06:59:54.903Z,4.38
2018-03-23T07:02:23.333Z,4.39
2018-03-23T07:04:51.606Z,4.38
2018-03-23T07:07:19.889Z,4.40
2018-03-23T07:09:49.052Z,4.41
2018-03-23T07:12:17.458Z,4.44
2018-03-23T07:14:46.235Z,4.35
2018-03-23T07:17:14.517Z,4.43
2018-03-23T07:19:42.813Z,4.44
2018-03-23T07:22:11.120Z,4.46
2018-03-23T07:24:40.246Z,4.52
2018-03-23T07:27:08.528Z,4.55
2018-03-23T07:29:37.042Z,4.53
2018-03-23T07:32:07.180Z,4.44
2018-03-23T07:34:36.216Z,4.53
2018-03-23T07:37:04.659Z,4.46
2018-03-23T07:39:33.899Z,4.44
2018-03-23T07:42:02.242Z,4.52
2018-03-23T07:44:30.625Z,4.49
2018-03-23T07:46:58.919Z,4.50
2018-03-23T07:49:27.207Z,4.45
2018-03-23T07:51:55.548Z,4.62
2018-03-23T07:54:24.733Z,4.61
2018-03-23T07:56:53.841Z,4.60
2018-03-23T07:59:22.126Z,4.59
2018-03-23T08:01:50.388Z,4.48
2018-03-23T08:04:19.472Z,4.47
2018-03-23T08:06:48.700Z,4.55
2018-03-23T08:09:16.980Z,4.50
2018-03-23T08:11:45.256Z,4.57
2018-03-23T08:14:13.533Z,4.58
2018-03-23T08:16:41.809Z,4.55
2018-03-23T08:19:10.255Z,4.51
2018-03-23T08:21:38.566Z,4.64
2018-03-23T08:24:06.836Z,4.58
2018-03-23T08:26:35.181Z,4.40
2018-03-23T08:29:03.462Z,4.52
2018-03-23T08:31:32.510Z,4.48
2018-03-23T08:34:00.783Z,4.58
2018-03-23T08:36:29.210Z,4.64
2018-03-23T08:38:57.624Z,4.69
2018-03-23T08:41:25.902Z,4.75
2018-03-23T08:43:54.507Z,4.58
2018-03-23T08:48:58.104Z,4.51
2018-03-23T08:51:26.370Z,4.58
2018-03-23T08:53:54.643Z,4.70
2018-03-23T08:56:22.924Z,4.72
2018-03-23T08:58:51.188Z,4.70
2018-03-23T09:01:19.506Z,4.66
2018-03-23T09:03:48.559Z,4.67
2018-03-23T09:06:17.820Z,4.74
2018-03-23T09:08:46.113Z,4.81
2018-03-23T09:11:14.599Z,4.75
2018-03-23T09:13:42.882Z,4.86
2018-03-23T09:16:11.168Z,4.79
2018-03-23T09:18:39.709Z,4.79
2018-03-23T09:21:08.059Z,4.93
2018-03-23T09:23:36.364Z,5.00
2018-03-23T09:26:04.680Z,5.06
2018-03-23T09:28:32.991Z,5.10
2018-03-23T09:31:01.279Z,5.06
2018-03-23T09:33:30.621Z,5.26
2018-03-23T09:35:58.897Z,5.09
2018-03-23T09:38:27.181Z,5.10
2018-03-23T09:40:55.454Z,5.09
2018-03-23T09:43:23.765Z,5.22
2018-03-23T09:45:52.052Z,5.19
2018-03-23T09:48:20.599Z,5.27
2018-03-23T09:50:48.862Z,5.38
2018-03-23T09:53:17.125Z,5.35
2018-03-23T09:55:45.421Z,5.48
2018-03-23T09:58:13.681Z,5.66
2018-03-23T10:00:42.222Z,5.65
2018-03-23T10:03:11.352Z,5.53
2018-03-23T10:05:40.008Z,5.60
2018-03-23T10:08:08.313Z,5.80
2018-03-23T10:10:36.595Z,5.89
2018-03-23T10:13:04.864Z,5.74
2018-03-23T10:15:34.411Z,5.76
2018-03-23T10:18:02.667Z,5.76
2018-03-23T10:20:31.224Z,5.73
2018-03-23T10:22:59.501Z,5.63
2018-03-23T10:25:27.880Z,5.62
2018-03-23T10:27:56.158Z,5.63
2018-03-23T10:30:24.433Z,5.57
2018-03-23T10:32:52.701Z,5.66
2018-03-23T10:35:20.999Z,5.55
2018-03-23T10:37:49.348Z,5.81
2018-03-23T10:40:17.632Z,5.75
2018-03-23T10:42:46.324Z,5.73
2018-03-23T10:45:14.903Z,5.69
2018-03-23T10:47:43.178Z,5.71
2018-03-23T10:50:12.376Z,5.69
2018-03-23T10:52:40.698Z,5.66
2018-03-23T10:55:08.919Z,5.55
2018-03-23T10:57:37.191Z,5.62
2018-03-23T11:00:05.472Z,5.89
2018-03-23T11:02:43.833Z,5.91
2018-03-23T11:05:12.868Z,5.91
2018-03-23T11:07:41.154Z,5.75
2018-03-23T11:10:09.698Z,5.85
2018-03-23T11:12:38.099Z,5.92
2018-03-23T11:15:06.416Z,6.00
2018-03-23T11:17:34.732Z,6.08
2018-03-23T11:20:03.107Z,6.22
2018-03-23T11:22:32.229Z,6.25
2018-03-23T11:25:00.526Z,6.23
2018-03-23T11:27:28.792Z,6.12
2018-03-23T11:29:57.069Z,6.08
2018-03-23T11:32:25.343Z,6.20
2018-03-23T11:34:53.619Z,6.21
2018-03-23T11:37:21.899Z,6.38
2018-03-23T11:39:50.203Z,6.45
2018-03-23T11:42:19.243Z,6.44
2018-03-23T11:44:47.525Z,6.55
2018-03-23T11:47:15.800Z,6.68
2018-03-23T11:49:44.230Z,6.76
2018-03-23T11:52:12.648Z,6.70
2018-03-23T11:54:40.926Z,6.81
2018-03-23T11:57:09.403Z,6.91
2018-03-23T11:59:37.729Z,6.92
2018-03-23T12:02:06.080Z,6.96
2018-03-23T12:04:34.320Z,7.04
2018-03-23T12:07:02.633Z,6.91
2018-03-23T12:09:31.043Z,6.73
2018-03-23T12:12:00.185Z,6.70
2018-03-23T12:14:28.464Z,6.56
2018-03-23T12:16:56.779Z,6.65
2018-03-23T12:19:25.056Z,6.65
2018-03-23T12:21:53.334Z,6.42
2018-03-23T12:24:22.381Z,6.37
2018-03-23T12:26:50.658Z,6.54
2018-03-23T12:29:18.963Z,6.55
2018-03-23T12:31:47.266Z,6.61
2018-03-23T12:36:51.050Z,6.70
2018-03-23T12:39:19.337Z,6.81
2018-03-23T12:41:47.608Z,6.87
2018-03-23T12:44:15.902Z,6.93
2018-03-23T12:46:45.285Z,6.99
2018-03-23T12:49:14.585Z,7.05
2018-03-23T12:51:42.864Z,7.10
2018-03-23T12:54:11.156Z,6.98
2018-03-23T12:56:40.475Z,7.05
2018-03-23T12:59:08.783Z,6.95
2018-03-23T13:01:37.070Z,6.83
2018-03-23T13:04:05.363Z,6.98
2018-03-23T13:06:33.634Z,6.98
2018-03-23T13:09:03.018Z,7.04
2018-03-23T13:11:31.375Z,7.06
2018-03-23T13:13:59.652Z,6.98
2018-03-23T13:16:28.084Z,7.06
2018-03-23T13:18:57.196Z,7.20
2018-03-23T13:21:26.449Z,7.19
2018-03-23T13:23:54.829Z,7.22
2018-03-23T13:26:23.103Z,7.13
2018-03-23T13:28:51.584Z,7.07
2018-03-23T13:31:20.138Z,7.08
2018-03-23T13:33:48.773Z,7.11
2018-03-23T13:36:17.820Z,7.27
2018-03-23T13:38:46.544Z,7.45
2018-03-23T13:41:14.835Z,7.62
2018-03-23T13:43:43.163Z,7.67
2018-03-23T13:46:11.574Z,7.66
2018-03-23T13:48:40.640Z,7.58
2018-03-23T13:51:08.909Z,7.55
2018-03-23T13:53:37.238Z,7.42
2018-03-23T13:56:06.514Z,7.29
2018-03-23T13:58:41.074Z,7.41
2018-03-23T14:04:10.093Z,7.48
2018-03-23T14:06:38.390Z,7.60
2018-03-23T14:09:06.730Z,7.51
2018-03-23T14:11:35.359Z,7.66
2018-03-23T14:14:03.571Z,7.64
2018-03-23T14:16:32.689Z,7.73
2018-03-23T14:19:00.978Z,7.63
2018-03-23T14:21:29.317Z,7.62
2018-03-23T14:23:58.589Z,7.67
2018-03-23T14:26:26.895Z,7.77
2018-03-23T14:28:56.053Z,7.70
2018-03-23T14:31:24.545Z,7.79
2018-03-23T14:33:53.397Z,7.83
2018-03-23T14:36:24.952Z,7.81
2018-03-23T14:38:53.551Z,7.75
2018-03-23T14:41:21.887Z,7.75
2018-03-23T14:43:50.978Z,7.86
2018-03-23T14:46:19.264Z,7.80
2018-03-23T14:48:47.505Z,7.95
2018-03-23T14:51:17.183Z,7.95
2018-03-23T14:53:46.097Z,7.82
2018-03-23T14:56:15.447Z,7.77
2018-03-23T14:58:49.208Z,7.77
2018-03-23T15:01:17.639Z,7.73
2018-03-23T15:03:45.949Z,7.64
2018-03-23T15:06:14.339Z,7.70
2018-03-23T15:08:43.712Z,7.77
2018-03-23T15:11:13.009Z,7.80
2018-03-23T15:13:41.296Z,7.86
2018-03-23T15:16:09.595Z,7.87
2018-03-23T15:18:38.774Z,7.98
2018-03-23T15:21:07.464Z,7.95
2018-03-23T15:23:36.565Z,7.92
2018-03-23T15:26:05.760Z,7.84
2018-03-23T15:28:34.017Z,7.89
2018-03-23T15:31:02.370Z,7.96
2018-03-23T15:33:30.851Z,7.89
2018-03-23T15:35:59.126Z,7.95
2018-03-23T15:38:27.396Z,8.02
2018-03-23T15:40:55.784Z,7.98
2018-03-23T15:43:24.208Z,7.95
2018-03-23T15:45:53.257Z,7.88
2018-03-23T15:48:22.542Z,7.84
2018-03-23T15:50:50.965Z,7.84
2018-03-23T15:53:19.388Z,7.73
2018-03-23T15:55:47.680Z,7.71
2018-03-23T15:58:16.005Z,7.80
2018-03-23T16:00:44.338Z,7.72
2018-03-23T16:03:12.785Z,7.77
2018-03-23T16:05:41.066Z,7.83
2018-03-23T16:08:09.359Z,7.78
2018-03-23T16:10:37.637Z,7.89
2018-03-23T16:13:05.953Z,8.00
2018-03-23T16:15:34.986Z,7.90
2018-03-23T16:18:03.386Z,7.87
2018-03-23T16:20:31.641Z,7.85
2018-03-23T16:22:59.934Z,7.80
2018-03-23T16:25:28.211Z,7.78
2018-03-23T16:27:56.531Z,7.80
2018-03-23T16:30:25.622Z,7.79
2018-03-23T16:32:54.768Z,7.72
2018-03-23T16:35:23.043Z,7.72
2018-03-23T16:37:51.314Z,7.74
2018-03-23T16:40:19.796Z,7.73
2018-03-23T16:42:48.074Z,7.72
2018-03-23T16:45:16.373Z,7.67
2018-03-23T16:47:44.633Z,7.65
2018-03-23T16:50:13.030Z,7.65
2018-03-23T16:52:41.436Z,7.65
2018-03-23T16:55:11.286Z,7.64
2018-03-23T16:57:39.663Z,7.65
2018-03-23T17:00:07.947Z,7.64
2018-03-23T17:02:36.307Z,7.62
2018-03-23T17:05:04.599Z,7.60
2018-03-23T17:07:32.988Z,7.59
2018-03-23T17:10:01.357Z,7.53
2018-03-23T17:12:29.837Z,7.51
2018-03-23T17:14:58.490Z,7.50
2018-03-23T17:17:26.804Z,7.46
2018-03-23T17:19:55.348Z,7.45
2018-03-23T17:22:23.665Z,7.41
2018-03-23T17:24:51.926Z,7.34
2018-03-23T17:27:20.174Z,7.36
2018-03-23T17:29:48.728Z,7.30
2018-03-23T17:32:17.785Z,7.29
2018-03-23T17:34:46.056Z,7.28
2018-03-23T17:37:14.344Z,7.23
2018-03-23T17:39:42.996Z,7.21
2018-03-23T17:42:11.381Z,7.15
2018-03-23T17:44:39.753Z,7.16
2018-03-23T17:47:08.051Z,7.10
2018-03-23T17:49:36.346Z,7.01
2018-03-23T17:52:06.171Z,6.99
2018-03-23T17:54:35.321Z,6.96
2018-03-23T17:57:03.781Z,6.96
2018-03-23T17:59:32.074Z,6.91
2018-03-23T18:02:00.365Z,6.91
2018-03-23T18:04:28.676Z,6.90
2018-03-23T18:06:57.731Z,6.91
2018-03-23T18:09:26.021Z,6.89
2018-03-23T18:11:54.317Z,6.85
2018-03-23T18:14:23.437Z,6.79
2018-03-23T18:16:52.621Z,6.84
2018-03-23T18:19:21.751Z,6.79
2018-03-23T18:21:50.147Z,6.81
2018-03-23T18:24:18.704Z,6.74
2018-03-23T18:26:47.171Z,6.60
2018-03-23T18:29:15.827Z,6.68
2018-03-23T18:31:44.162Z,6.77
2018-03-23T18:34:12.491Z,6.78
2018-03-23T18:36:41.591Z,6.76
2018-03-23T18:39:10.392Z,6.74
2018-03-23T18:41:38.798Z,6.72
2018-03-23T18:44:07.756Z,6.68
2018-03-23T18:46:36.535Z,6.62
2018-03-23T18:49:05.765Z,6.55
2018-03-23T18:51:34.763Z,6.60
2018-03-23T18:54:03.927Z,6.64
2018-03-23T18:56:32.838Z,6.50
2018-03-23T18:59:01.647Z,6.49
2018-03-23T19:01:30.215Z,6.55
2018-03-23T19:03:59.728Z,6.47
2018-03-23T19:06:29.090Z,6.39
2018-03-23T19:08:58.030Z,6.35
2018-03-23T19:11:26.653Z,6.35
2018-03-23T19:13:56.104Z,6.43
2018-03-23T19:16:24.508Z,6.41
2018-03-23T19:18:53.464Z,6.40
2018-03-23T19:21:22.297Z,6.40
2018-03-23T19:23:52.284Z,6.39
2018-03-23T19:26:20.740Z,6.35
2018-03-23T19:28:50.228Z,6.37
2018-03-23T19:31:18.717Z,6.42
2018-03-23T19:33:47.087Z,6.39
2018-03-23T19:36:15.626Z,6.41
2018-03-23T19:38:45.099Z,6.25
2018-03-23T19:41:13.871Z,6.43
2018-03-23T19:43:42.677Z,6.43
2018-03-23T19:46:11.299Z,6.60
2018-03-23T19:48:39.873Z,6.63
2018-03-23T19:51:08.709Z,6.55
2018-03-23T19:53:37.222Z,6.51
2018-03-23T19:56:05.893Z,6.55
2018-03-23T19:58:34.539Z,6.63
2018-03-23T20:01:02.933Z,6.72
2018-03-23T20:03:31.746Z,6.63
2018-03-23T20:06:00.363Z,6.48
2018-03-23T20:08:29.061Z,6.67
2018-03-23T20:10:58.342Z,6.60
2018-03-23T20:13:27.386Z,6.74
2018-03-23T20:15:56.019Z,6.59
2018-03-23T20:18:24.608Z,6.40
2018-03-23T20:20:58.763Z,6.49
2018-03-23T20:23:27.398Z,6.51
2018-03-23T20:25:56.861Z,6.48
2018-03-23T20:28:30.939Z,6.28
2018-03-23T20:31:00.363Z,6.02
2018-03-23T20:33:31.887Z,5.86
2018-03-23T20:36:01.469Z,5.72
2018-03-23T20:38:31.508Z,5.60
2018-03-23T20:41:00.245Z,5.52
2018-03-23T20:43:28.820Z,5.53
2018-03-23T20:45:57.583Z,5.48
2018-03-23T20:48:25.940Z,5.47
2018-03-23T20:50:54.563Z,5.34
2018-03-23T20:53:23.693Z,5.37
2018-03-23T20:55:52.147Z,5.35
2018-03-23T20:58:22.173Z,5.49
2018-03-23T21:00:50.800Z,5.33
2018-03-23T21:03:22.043Z,5.32
2018-03-23T21:05:51.049Z,5.32
2018-03-23T21:08:20.534Z,5.35
2018-03-23T21:10:49.529Z,5.25
2018-03-23T21:13:18.328Z,5.31
2018-03-23T21:15:47.233Z,5.35
2018-03-23T21:18:16.123Z,5.28
2018-03-23T21:20:47.064Z,5.16
2018-03-23T21:23:16.719Z,5.11
2018-03-23T21:25:45.523Z,5.12
2018-03-23T21:28:14.871Z,5.24
2018-03-23T21:30:43.478Z,5.40
2018-03-23T21:33:12.741Z,5.43
2018-03-23T21:35:42.010Z,5.48
2018-03-23T21:38:11.346Z,5.55
2018-03-23T21:40:40.270Z,5.54
2018-03-23T21:43:09.002Z,5.39
2018-03-23T21:45:37.380Z,5.33
2018-03-23T21:48:06.089Z,5.33
2018-03-23T21:50:34.988Z,5.34
2018-03-23T21:53:03.715Z,5.34
2018-03-23T21:55:32.948Z,5.36
2018-03-23T21:58:01.380Z,5.31
2018-03-23T22:00:29.809Z,5.32
2018-03-23T22:02:58.072Z,5.35
2018-03-23T22:05:26.355Z,5.28
2018-03-23T22:07:54.656Z,5.25
2018-03-23T22:10:22.935Z,5.16
2018-03-23T22:12:51.250Z,5.08
2018-03-23T22:15:20.311Z,4.98
2018-03-23T22:17:48.575Z,4.89
2018-03-23T22:20:16.888Z,4.89
2018-03-23T22:22:45.926Z,4.88
2018-03-23T22:25:14.217Z,4.97
2018-03-23T22:27:42.513Z,4.92
2018-03-23T22:30:10.981Z,4.83
2018-03-23T22:32:39.270Z,4.66
2018-03-23T22:35:07.682Z,4.84
2018-03-23T22:37:35.991Z,4.80
2018-03-23T22:40:04.377Z,4.80
2018-03-23T22:42:32.757Z,4.75
2018-03-23T22:45:01.034Z,4.84
2018-03-23T22:47:29.389Z,4.94
2018-03-23T22:49:57.673Z,4.90
2018-03-23T22:52:25.998Z,4.91
2018-03-23T22:54:54.291Z,4.97
2018-03-23T22:57:22.564Z,4.95
2018-03-23T22:59:50.865Z,5.00
2018-03-23T23:02:19.209Z,5.03
2018-03-23T23:04:48.261Z,5.11
2018-03-23T23:07:17.301Z,5.16
2018-03-23T23:09:45.605Z,5.16
2018-03-23T23:12:13.855Z,5.30
2018-03-23T23:14:42.136Z,5.34
2018-03-23T23:17:10.396Z,5.26
2018-03-23T23:19:39.445Z,5.35
2018-03-23T23:22:07.886Z,5.46
2018-03-23T23:24:36.238Z,5.47
2018-03-23T23:27:05.373Z,5.46
2018-03-23T23:29:33.824Z,5.36
2018-03-23T23:32:02.175Z,5.48
2018-03-23T23:34:31.215Z,5.44
2018-03-23T23:36:59.554Z,5.52
2018-03-23T23:39:28.857Z,5.61
2018-03-23T23:41:57.931Z,5.64
2018-03-23T23:44:26.272Z,5.63
2018-03-23T23:46:54.658Z,5.68
2018-03-23T23:49:23.061Z,5.54
2018-03-23T23:51:52.892Z,5.26
2018-03-23T23:56:56.699Z,5.06
2018-03-23T23:59:25.137Z,4.88
